Nearby METAR Reports

 

KMLP - Mullan Pass
Updated: Thu, 25-Apr-2019 8:53am PDT
Clear
Clear
 Wind from SSE
Wind: SSE 6 mph , 9 km/h
Temperature: 41°F , 5°C
Wind Chill: 37°F , 3°C
Dew Point: 18°F , -8°C
Humidity: 39%
Barometer: 30.20 inHg , 1022.7 hPa
Clouds: Clear
Visibility: 10 miles , 16 km
2019/04/25 15:53 KMLP 251553Z AUTO 16005KT 10SM CLR 05/M08 A3020 RMK AO2 SLP181 T00501078
KCOE - Coeur d Alene
Updated: Thu, 25-Apr-2019 8:56am PDT
Clear
Clear
 Wind from NNE
Wind: NNE 10 mph , 17 km/h
Temperature: 48°F , 9°C
Wind Chill: 44°F , 7°C
Dew Point: 28°F , -2°C
Humidity: 46%
Barometer: 30.22 inHg , 1023.4 hPa
Clouds: Clear
Visibility: 10 miles , 16 km
2019/04/25 15:56 KCOE 251556Z AUTO 03009KT 10SM CLR 09/M02 A3022 RMK AO2 SLP255 T00941017
 
KLWS - Lewiston
Updated: Thu, 25-Apr-2019 8:56am PDT
Clear
Clear
 Wind from ENE
Wind: ENE 3 mph , 6 km/h
Temperature: 50°F , 10°C
Dew Point: 37°F , 3°C
Humidity: 62%
Barometer: 30.21 inHg , 1023 hPa
Clouds: Clear
Visibility: 10 miles , 16 km
2019/04/25 15:56 KLWS 251556Z 07003KT 10SM CLR 10/03 A3021 RMK AO2 SLP232 T01000028
KGEG - Spokane Intl
Updated: Thu, 25-Apr-2019 8:53am PDT
Mostly Cloudy
Mostly Cloudy
 Wind from ENE
Wind: ENE 9 mph , 15 km/h
Temperature: 48°F , 9°C
Wind Chill: 44°F , 7°C
Dew Point: 27°F , -3°C
Humidity: 43%
Barometer: 30.21 inHg , 1023 hPa
Clouds: Mostly Cloudy
Visibility: 10 miles , 16 km
Cloud details: Mostly Cloudy 25000 ft
2019/04/25 15:53 KGEG 251553Z 06008KT 10SM BKN250 09/M03 A3021 RMK AO2 SLP232 T00941028